Nearby METAR Reports

 

KBFI - Seattle/Boeing, Washington, USA
Distance from station: S 10mi, 16km
Updated: Wed, 01-Apr-2020 1:53pm PDT
Mostly cloudy
Mostly cloudy
 Wind from NW
Wind: NW 6 mph , 9 km/h
Temperature: 48°F , 9°C
Wind Chill: 45°F , 7°C
Dew Point: 34°F , 1°C
Humidity: 58%
Barometer: 30.08 inHg , 1018.6 hPa
Clouds: Mostly cloudy
Visibility: 10 miles , 16 km
Cloud details: Partly cloudy 3400 ft
Mostly cloudy 4500 ft
2020/04/01 20:53 KBFI 012053Z 31005KT 10SM SCT034 BKN045 09/01 A3008 RMK AO2 SLP185 60000 T00940011 58003
KRNT - Renton, Washington, USA
Distance from station: SSE 14mi, 23km
Updated: Wed, 01-Apr-2020 2:05pm PDT
Mostly cloudy
Mostly cloudy
 Wind from NW
Wind: NW 10 mph , 17 km/h
Temperature: 48°F , 9°C
Wind Chill: 44°F , 7°C
Dew Point: 37°F , 3°C
Humidity: 66%
Barometer: 30.07 inHg , 1018.3 hPa
Clouds: Mostly cloudy
Visibility: 10 miles , 16 km
Cloud details: Partly cloudy 2400 ft
Mostly cloudy 3200 ft
2020/04/01 21:05 KRNT 012105Z 31009KT 10SM SCT024 BKN032 09/03 A3007 RMK AO2 T00940028 $
 
KPAE - Everett, Washington, USA
Distance from station: N 15mi, 25km
Updated: Wed, 01-Apr-2020 2:18pm PDT
Partly cloudy
Partly cloudy
 Wind from NNW
Wind: NNW 8 mph , 13 km/h
Temperature: 45°F , 7°C
Wind Chill: 41°F , 5°C
Dew Point: 36°F , 2°C
Humidity: 71%
Barometer: 30.08 inHg , 1018.6 hPa
Clouds: Partly cloudy
Visibility: 10 miles , 16 km
Cloud details: Partly cloudy 1800 ft
2020/04/01 21:18 KPAE 012118Z 34007KT 10SM SCT018 07/02 A3008 RMK AO2 T00670017
KSEA - Seattle/Metro, Washington, USA
Distance from station: S 17mi, 27km
Updated: Wed, 01-Apr-2020 1:53pm PDT
Mostly cloudy
Mostly cloudy
 Wind from NW
Wind: NW 7 mph , 11 km/h
Temperature: 48°F , 9°C
Wind Chill: 45°F , 7°C
Dew Point: 34°F , 1°C
Humidity: 58%
Barometer: 30.07 inHg , 1018.3 hPa
Clouds: Mostly cloudy
Visibility: 10 miles , 16 km
Cloud details: Partly cloudy 2500 ft
Mostly cloudy 3600 ft
2020/04/01 20:53 KSEA 012053Z 31006KT 10SM SCT025 BKN036 09/01 A3007 RMK AO2 SLP190 T00940011 56001
 
KPWT - Bremerton Ntnl, Washington, USA
Distance from station: SW 24mi, 39km
Updated: Wed, 01-Apr-2020 1:56pm PDT
Mostly cloudy
Mostly cloudy
 Wind from NNE
Wind: NNE 6 mph , 9 km/h
Temperature: 46°F , 8°C
Wind Chill: 43°F , 6°C
Dew Point: 34°F , 1°C
Humidity: 62%
Barometer: 30.07 inHg , 1018.3 hPa
Clouds: Mostly cloudy
Visibility: 10 miles , 16 km
Cloud details: Few Clouds 3500 ft
Mostly cloudy 6000 ft
2020/04/01 20:56 KPWT 012056Z AUTO 02005KT 10SM FEW035 BKN060 08/01 A3007 RMK AO2 SLP190 T00830006 56005
KTIW - Tacoma, Washington, USA
Distance from station: SSW 32mi, 52km
Updated: Wed, 01-Apr-2020 1:53pm PDT
Mostly cloudy
Mostly cloudy
 Wind from N
Wind: N 6 mph , 9 km/h
Temperature: 46°F , 8°C
Wind Chill: 43°F , 6°C
Dew Point: 36°F , 2°C
Humidity: 66%
Barometer: 30.07 inHg , 1018.3 hPa
Clouds: Mostly cloudy
Visibility: 10 miles , 16 km
Cloud details: Partly cloudy 2600 ft
Partly cloudy 3900 ft
Mostly cloudy 4700 ft
2020/04/01 20:53 KTIW 012053Z 35005KT 10SM SCT026 SCT039 BKN047 08/02 A3007 RMK AO2 SLP186 T00830022 56004
 
KAWO - Arlington Muni, Washington, USA
Distance from station: N 33mi, 54km
Updated: Wed, 01-Apr-2020 1:56pm PDT
Overcast
Overcast
 Wind from WNW
Wind: WNW 13 mph , 20 km/h
Temperature: 46°F , 8°C
Wind Chill: 40°F , 4°C
Dew Point: 37°F , 3°C
Humidity: 71%
Barometer: 30.08 inHg , 1018.6 hPa
Clouds: Overcast
Visibility: 10 miles , 16 km
Cloud details: Few Clouds 2700 ft
Partly cloudy 3600 ft
Overcast 6000 ft
2020/04/01 20:56 KAWO 012056Z AUTO 30011KT 10SM FEW027 SCT036 OVC060 08/03 A3008 RMK AO2 RAB03E36 SLP192 P0000 60000 T00780028 55002
KTCM - Tacoma/Mc Chord, Washington, USA
Distance from station: S 41mi, 65km
Updated: Wed, 01-Apr-2020 1:58pm PDT
Partly cloudy
Partly cloudy
 Wind from W
Wind: W 9 mph , 15 km/h
Temperature: 50°F , 10°C
Wind Chill: 46°F , 8°C
Dew Point: 34°F , 1°C
Humidity: 54%
Barometer: 30.06 inHg , 1017.9 hPa
Clouds: Partly cloudy
Visibility: 10 miles , 16 km
Cloud details: Partly cloudy 3600 ft
2020/04/01 20:58 KTCM 012058Z AUTO 28008KT 10SM SCT036 10/01 A3006 RMK AO2 SLP185 T00970013 57005 $
 
KPLU - Puyallup/Thun, Washington, USA
Distance from station: S 41mi, 66km
Updated: Wed, 01-Apr-2020 2:15pm PDT
Mostly cloudy
Mostly cloudy
 Wind from N
Wind: N 7 mph , 11 km/h
Temperature: 52°F , 11°C
Dew Point: 34°F , 1°C
Humidity: 50%
Barometer: 30.05 inHg , 1017.6 hPa
Clouds: Mostly cloudy
Visibility: 10 miles , 16 km
Cloud details: Few Clouds 3600 ft
Partly cloudy 4700 ft
Mostly cloudy 6000 ft
2020/04/01 21:15 KPLU 012115Z AUTO 36006KT 10SM FEW036 SCT047 BKN060 11/01 A3005 RMK AO2
KGRF - Fort Lewis/Gray, Washington, USA
Distance from station: SSW 45mi, 72km
Updated: Wed, 01-Apr-2020 1:58pm PDT
Mostly cloudy
Mostly cloudy
 Wind from NW
Wind: NW 6 mph , 9 km/h
Temperature: 48°F , 9°C
Wind Chill: 45°F , 7°C
Dew Point: 41°F , 5°C
Humidity: 76%
Barometer: 30.06 inHg , 1017.9 hPa
Clouds: Mostly cloudy
Visibility: 10 miles , 16 km
Cloud details: Partly cloudy 3400 ft
Mostly cloudy 4300 ft
2020/04/01 20:58 KGRF 012058Z AUTO 31005KT 10SM SCT034 BKN043 09/05 A3006 RMK AO2 SLP185 T00930049 57004 $
 
KNUW - Whidbey Is. Nas, Washington, USA
Distance from station: NNW 48mi, 77km
Updated: Wed, 01-Apr-2020 1:56pm PDT
Partly cloudy
Partly cloudy
 Wind from WNW
Wind: WNW 8 mph , 13 km/h
Temperature: 50°F , 10°C
Wind Chill: 47°F , 8°C
Dew Point: 30°F , -1°C
Humidity: 47%
Barometer: 30.14 inHg , 1020.7 hPa
Clouds: Partly cloudy
Visibility: 10 miles , 16 km
Cloud details: Few Clouds 3000 ft
Few Clouds 6000 ft
Partly cloudy 10000 ft
2020/04/01 20:56 KNUW 012056Z 30007KT 10SM FEW030 FEW060 SCT100 10/M01 A3014 RMK AO2 SLP204 60000 T01001011 50001
KSHN - Shelton, Washington, USA
Distance from station: SW 50mi, 80km
Updated: Wed, 01-Apr-2020 1:53pm PDT
Mostly cloudy
Mostly cloudy
 Wind from varies
Wind: varies 3 mph , 6 km/h
Temperature: 48°F , 9°C
Dew Point: 36°F , 2°C
Humidity: 62%
Barometer: 30.05 inHg , 1017.6 hPa
Clouds: Mostly cloudy
Visibility: 10 miles , 16 km
Cloud details: Partly cloudy 3300 ft
Mostly cloudy 5500 ft
2020/04/01 20:53 KSHN 012053Z AUTO VRB03KT 10SM SCT033 BKN055 09/02 A3005 RMK AO2 SLP179 T00890022 58003